Time;durP1;ratioP1;P1;durP2;ratioP2;P2;SDS_P1;SDS_P2;PMS_P1;PMS_P2;Temp;Humidity;BMP_temperature;BMP_pressure;BME280_temperature;BME280_humidity;BME280_pressure;Samples;Min_cycle;Max_cycle;Signal;HPM_P1;HPM_P2
2023/08/16 00:01:10;;;;;;;3.70;2.03;;;16.40;99.90;;;;;;5021400;28;20033;-84
2023/08/16 00:03:37;;;;;;;5.90;2.30;;;16.40;99.90;;;;;;5023294;28;20079;-82
2023/08/16 00:06:10;;;;;;;3.70;1.73;;;16.40;99.90;;;;;;5024651;28;20024;-83
2023/08/16 00:08:36;;;;;;;2.83;1.42;;;16.30;99.90;;;;;;5011305;28;20608;-82
2023/08/16 00:11:02;;;;;;;2.65;1.75;;;16.30;99.90;;;;;;5017894;28;20053;-83
2023/08/16 00:13:27;;;;;;;6.90;2.33;;;16.30;99.90;;;;;;5012841;28;20037;-84
2023/08/16 00:15:53;;;;;;;5.70;1.98;;;16.30;99.90;;;;;;5027711;28;20050;-84
2023/08/16 00:18:21;;;;;;;2.08;1.20;;;16.30;99.90;;;;;;5020084;28;20026;-83
2023/08/16 00:20:47;;;;;;;3.05;1.58;;;16.30;99.90;;;;;;5030209;28;20033;-82
2023/08/16 00:23:12;;;;;;;4.13;2.03;;;16.20;99.90;;;;;;5023291;28;20033;-83
2023/08/16 00:25:39;;;;;;;5.18;2.25;;;16.20;99.90;;;;;;5028346;28;20381;-83
2023/08/16 00:28:05;;;;;;;2.95;1.73;;;16.10;99.90;;;;;;5032146;28;20066;-83
2023/08/16 00:30:30;;;;;;;2.35;2.15;;;16.10;99.90;;;;;;5030539;28;20093;-82
2023/08/16 00:32:58;;;;;;;5.82;2.33;;;16.10;99.90;;;;;;5030868;28;20045;-82
2023/08/16 00:35:24;;;;;;;2.92;1.75;;;16.00;99.90;;;;;;5029116;28;20025;-82
2023/08/16 00:37:49;;;;;;;7.55;1.90;;;16.00;99.90;;;;;;5035141;28;20116;-83
2023/08/16 00:40:15;;;;;;;11.40;2.08;;;16.00;99.90;;;;;;5029847;28;20028;-83
2023/08/16 00:42:41;;;;;;;6.13;1.92;;;15.90;99.90;;;;;;5028593;28;20037;-83
2023/08/16 00:45:07;;;;;;;2.35;1.45;;;15.90;99.90;;;;;;5030195;28;20017;-82
2023/08/16 00:47:34;;;;;;;2.03;1.65;;;15.90;99.90;;;;;;5028868;28;20100;-83
2023/08/16 00:50:00;;;;;;;7.05;2.50;;;15.90;99.90;;;;;;5030628;28;20029;-82
2023/08/16 00:52:26;;;;;;;6.65;2.72;;;15.80;99.90;;;;;;5025149;28;20503;-83
2023/08/16 00:54:52;;;;;;;3.05;1.63;;;15.80;99.90;;;;;;5032245;28;20041;-82
2023/08/16 00:57:18;;;;;;;7.22;1.95;;;15.80;99.90;;;;;;5031658;28;20035;-83
2023/08/16 00:59:45;;;;;;;2.38;1.73;;;15.80;99.90;;;;;;5026100;28;20034;-83
2023/08/16 01:02:13;;;;;;;2.92;1.67;;;15.80;99.90;;;;;;5026111;28;20129;-83
2023/08/16 01:04:40;;;;;;;3.53;1.90;;;15.70;99.90;;;;;;5027204;28;20029;-83
2023/08/16 01:07:06;;;;;;;4.10;1.90;;;15.70;99.90;;;;;;5029765;28;20033;-83
2023/08/16 01:09:32;;;;;;;2.63;2.03;;;15.60;99.90;;;;;;5027165;28;20109;-83
2023/08/16 01:12:09;;;;;;;2.45;1.80;;;15.60;99.90;;;;;;5028785;28;20028;-82
2023/08/16 01:14:58;;;;;;;2.75;2.03;;;15.60;99.90;;;;;;5024759;28;20057;-84
2023/08/16 01:17:25;;;;;;;8.77;2.45;;;15.60;99.90;;;;;;5021589;28;20491;-83
2023/08/16 01:19:55;;;;;;;8.85;2.63;;;15.50;99.90;;;;;;5026076;28;20504;-84
2023/08/16 01:22:42;;;;;;;5.95;1.80;;;15.50;99.90;;;;;;5025565;28;20026;-83
2023/08/16 01:25:20;;;;;;;2.03;1.63;;;15.50;99.90;;;;;;5021071;28;20014;-82
2023/08/16 01:27:47;;;;;;;4.82;2.20;;;15.40;99.90;;;;;;5026597;28;20026;-83
2023/08/16 01:30:13;;;;;;;2.83;2.08;;;15.40;99.90;;;;;;5026764;28;20018;-83
2023/08/16 01:32:38;;;;;;;8.68;1.77;;;15.30;99.90;;;;;;5028412;28;20026;-83
2023/08/16 01:35:04;;;;;;;1.98;1.40;;;15.30;99.90;;;;;;5024789;28;20025;-82
2023/08/16 01:37:30;;;;;;;5.57;1.98;;;15.30;99.90;;;;;;5026968;28;20065;-85
2023/08/16 01:40:04;;;;;;;1.95;1.38;;;15.30;99.90;;;;;;5029258;28;20029;-85
2023/08/16 01:42:33;;;;;;;7.63;2.00;;;15.30;99.90;;;;;;5031301;28;20107;-84
2023/08/16 01:45:00;;;;;;;2.85;2.10;;;15.30;99.90;;;;;;5022439;28;20036;-85
2023/08/16 01:47:28;;;;;;;3.03;1.73;;;15.20;99.90;;;;;;5024018;28;20053;-85
2023/08/16 01:49:57;;;;;;;3.50;1.63;;;15.20;99.90;;;;;;5017387;28;20014;-85
2023/08/16 01:52:26;;;;;;;6.90;2.40;;;15.20;99.90;;;;;;5032991;28;20010;-85
2023/08/16 01:54:51;;;;;;;4.72;2.42;;;15.20;99.90;;;;;;5040398;28;20028;-86
2023/08/16 01:57:17;;;;;;;5.13;2.80;;;15.20;99.90;;;;;;5024959;28;20424;-85
2023/08/16 01:59:42;;;;;;;3.58;1.60;;;15.20;99.90;;;;;;5025793;28;20041;-85
2023/08/16 02:02:08;;;;;;;5.00;2.15;;;15.10;99.90;;;;;;5025303;28;20116;-84
2023/08/16 02:04:33;;;;;;;7.95;2.10;;;15.10;99.90;;;;;;5027578;28;20480;-85
2023/08/16 02:06:59;;;;;;;3.20;2.00;;;15.10;99.90;;;;;;5025589;28;20381;-85
2023/08/16 02:09:25;;;;;;;4.18;2.35;;;15.10;99.90;;;;;;5021873;28;20481;-85
2023/08/16 02:11:51;;;;;;;2.83;2.15;;;15.10;99.90;;;;;;5035873;28;20036;-85
2023/08/16 02:14:16;;;;;;;4.53;1.60;;;15.10;99.90;;;;;;5032232;28;20065;-86
2023/08/16 02:16:42;;;;;;;5.38;2.17;;;15.10;99.90;;;;;;5034890;28;20753;-86
2023/08/16 02:19:08;;;;;;;7.15;2.10;;;15.00;99.90;;;;;;5033206;28;20025;-87
2023/08/16 02:21:33;;;;;;;3.08;2.10;;;15.00;99.90;;;;;;5033152;28;20014;-86
2023/08/16 02:23:59;;;;;;;4.05;2.45;;;15.00;99.90;;;;;;5031607;28;20413;-86
2023/08/16 02:26:25;;;;;;;2.33;2.03;;;15.00;99.90;;;;;;5029822;28;20033;-86
2023/08/16 02:28:51;;;;;;;8.85;2.95;;;15.00;99.90;;;;;;5031362;28;20032;-85
2023/08/16 02:31:17;;;;;;;3.50;2.55;;;15.00;99.90;;;;;;5031212;28;20044;-87
2023/08/16 02:33:42;;;;;;;3.08;2.13;;;14.90;99.90;;;;;;5029752;28;20050;-85
2023/08/16 02:36:08;;;;;;;5.80;2.95;;;14.90;99.90;;;;;;5028695;28;20021;-85
2023/08/16 02:38:34;;;;;;;4.43;2.60;;;14.90;99.90;;;;;;5028752;28;20022;-86
2023/08/16 02:41:00;;;;;;;5.15;2.88;;;14.90;99.90;;;;;;5026301;28;20420;-85
2023/08/16 02:43:26;;;;;;;6.60;2.88;;;14.90;99.90;;;;;;5025814;28;20034;-85
2023/08/16 02:45:52;;;;;;;6.18;3.00;;;14.80;99.90;;;;;;5026772;28;20033;-85
2023/08/16 02:48:18;;;;;;;4.88;3.05;;;14.80;99.90;;;;;;5029351;28;20021;-86
2023/08/16 02:50:44;;;;;;;4.53;2.70;;;14.80;99.90;;;;;;5027076;28;20021;-85
2023/08/16 02:53:10;;;;;;;5.60;3.40;;;14.80;99.90;;;;;;5028082;28;20643;-85
2023/08/16 02:55:35;;;;;;;6.72;2.90;;;14.80;99.90;;;;;;5025208;28;20030;-85
2023/08/16 02:58:01;;;;;;;7.68;3.40;;;14.80;99.90;;;;;;5031267;28;20033;-86
2023/08/16 03:00:26;;;;;;;4.18;2.90;;;14.80;99.90;;;;;;5022192;28;20044;-86
2023/08/16 03:02:52;;;;;;;5.63;2.95;;;14.80;99.90;;;;;;5027738;28;20018;-86
2023/08/16 03:05:18;;;;;;;6.10;2.63;;;14.70;99.90;;;;;;5031655;28;20420;-86
2023/08/16 03:07:43;;;;;;;4.45;3.08;;;14.80;99.90;;;;;;5034484;28;20018;-85
2023/08/16 03:10:09;;;;;;;4.80;2.97;;;14.70;99.90;;;;;;5027866;28;20445;-86
2023/08/16 03:12:34;;;;;;;8.23;3.42;;;14.70;99.90;;;;;;5024780;28;20484;-85
2023/08/16 03:15:00;;;;;;;4.50;3.15;;;14.70;99.90;;;;;;5023363;28;20030;-85
2023/08/16 03:17:27;;;;;;;4.22;2.75;;;14.70;99.90;;;;;;5025877;28;20469;-85
2023/08/16 03:19:52;;;;;;;5.65;3.28;;;14.60;99.90;;;;;;5026516;28;20384;-85
2023/08/16 03:22:18;;;;;;;7.07;3.95;;;14.60;99.90;;;;;;5027380;28;20026;-86
2023/08/16 03:24:43;;;;;;;10.40;3.53;;;14.60;99.90;;;;;;5024580;28;20022;-87
2023/08/16 03:27:09;;;;;;;9.80;3.67;;;14.60;99.90;;;;;;5024555;28;20041;-85
2023/08/16 03:29:34;;;;;;;5.15;3.75;;;14.60;99.90;;;;;;5021956;28;20022;-85
2023/08/16 03:32:00;;;;;;;13.57;3.97;;;14.60;99.90;;;;;;5021714;28;20121;-85
2023/08/16 03:34:25;;;;;;;6.93;4.25;;;14.60;99.90;;;;;;5024487;28;20111;-85
2023/08/16 03:36:51;;;;;;;6.30;4.05;;;14.50;99.90;;;;;;5028363;28;20092;-86
2023/08/16 03:39:16;;;;;;;9.93;6.03;;;14.50;99.90;;;;;;5024191;28;20436;-85
2023/08/16 03:41:42;;;;;;;5.47;4.30;;;14.50;99.90;;;;;;5024257;28;20022;-85
2023/08/16 03:44:08;;;;;;;8.07;5.32;;;14.40;99.90;;;;;;5025924;28;20026;-86
2023/08/16 03:46:36;;;;;;;5.88;4.80;;;14.40;99.90;;;;;;5025000;28;20044;-85
2023/08/16 03:49:02;;;;;;;5.25;4.75;;;14.40;99.90;;;;;;5027739;28;20029;-87
2023/08/16 03:51:28;;;;;;;8.13;5.75;;;14.50;99.90;;;;;;5026012;28;20660;-86
2023/08/16 03:53:53;;;;;;;6.63;5.30;;;14.40;99.90;;;;;;5024662;28;20053;-86
2023/08/16 03:56:19;;;;;;;8.10;6.18;;;14.40;99.90;;;;;;5029566;28;20456;-85
2023/08/16 03:58:44;;;;;;;9.52;6.65;;;14.40;99.90;;;;;;5023836;28;20121;-85
2023/08/16 04:01:10;;;;;;;9.27;5.97;;;14.40;99.90;;;;;;5026420;28;20073;-86
2023/08/16 04:03:35;;;;;;;8.27;5.82;;;14.40;99.90;;;;;;5022815;28;20048;-85
2023/08/16 04:06:01;;;;;;;8.45;6.00;;;14.30;99.90;;;;;;5027001;28;20109;-85
2023/08/16 04:08:26;;;;;;;7.80;5.43;;;14.30;99.90;;;;;;5020110;28;20018;-85
2023/08/16 04:10:52;;;;;;;7.97;5.32;;;14.30;99.90;;;;;;5026030;28;20021;-86
2023/08/16 04:13:17;;;;;;;6.05;5.45;;;14.30;99.90;;;;;;5026179;28;20032;-85
2023/08/16 04:15:43;;;;;;;13.27;6.82;;;14.30;99.90;;;;;;5026641;28;20022;-86
2023/08/16 04:18:09;;;;;;;8.57;6.40;;;14.30;99.90;;;;;;5027436;28;20026;-85
2023/08/16 04:20:34;;;;;;;8.15;6.15;;;14.30;99.90;;;;;;5021931;28;20041;-85
2023/08/16 04:23:00;;;;;;;8.50;6.00;;;14.20;99.90;;;;;;5021370;28;20026;-85
2023/08/16 04:25:25;;;;;;;9.18;6.30;;;14.20;99.90;;;;;;5019496;28;20026;-86
2023/08/16 04:27:51;;;;;;;8.77;6.18;;;14.20;99.90;;;;;;5020894;28;20022;-87
2023/08/16 04:30:16;;;;;;;6.05;5.05;;;14.20;99.90;;;;;;5029182;28;20025;-85
2023/08/16 04:32:42;;;;;;;6.97;5.85;;;14.20;99.90;;;;;;5022288;28;20553;-85
2023/08/16 04:35:08;;;;;;;6.85;5.90;;;14.20;99.90;;;;;;5026071;28;20029;-86
2023/08/16 04:37:34;;;;;;;14.25;7.15;;;14.20;99.90;;;;;;5025349;28;20365;-86
2023/08/16 04:39:59;;;;;;;11.88;7.07;;;14.20;99.90;;;;;;5023190;28;20030;-85
2023/08/16 04:42:25;;;;;;;9.90;6.88;;;14.20;99.90;;;;;;5021183;28;20574;-85
2023/08/16 04:44:51;;;;;;;9.82;8.27;;;14.20;99.90;;;;;;5019341;28;20017;-86
2023/08/16 04:47:17;;;;;;;18.30;8.82;;;14.30;99.90;;;;;;5022287;28;20022;-85
2023/08/16 04:49:43;;;;;;;8.65;7.80;;;14.30;99.90;;;;;;5024478;28;20053;-87
2023/08/16 04:52:08;;;;;;;13.85;9.35;;;14.40;99.90;;;;;;5027201;28;20537;-85
2023/08/16 04:54:34;;;;;;;11.90;9.23;;;14.40;99.90;;;;;;5022924;28;20056;-88
2023/08/16 04:56:59;;;;;;;13.65;8.45;;;14.40;99.90;;;;;;5015673;28;20464;-85
2023/08/16 04:59:25;;;;;;;12.65;9.35;;;14.40;99.90;;;;;;5026567;28;20025;-85
2023/08/16 05:01:51;;;;;;;15.35;9.18;;;14.40;99.90;;;;;;5013968;28;20032;-86
2023/08/16 05:04:16;;;;;;;11.10;8.20;;;14.40;99.90;;;;;;5026553;28;20380;-85
2023/08/16 05:06:42;;;;;;;10.07;7.82;;;14.50;99.90;;;;;;5027321;28;20079;-87
2023/08/16 05:09:07;;;;;;;12.15;8.35;;;14.50;99.90;;;;;;5021762;28;20042;-86
2023/08/16 05:11:33;;;;;;;10.63;7.85;;;14.50;99.90;;;;;;5026346;28;20485;-86
2023/08/16 05:13:59;;;;;;;11.93;7.60;;;14.50;99.90;;;;;;5025800;28;20415;-87
2023/08/16 05:16:25;;;;;;;12.00;9.35;;;14.50;99.90;;;;;;5025609;28;20375;-87
2023/08/16 05:18:52;;;;;;;12.43;7.82;;;14.50;99.90;;;;;;5025025;28;20021;-86
2023/08/16 05:21:18;;;;;;;16.83;7.68;;;14.50;99.90;;;;;;5026330;28;20073;-85
2023/08/16 05:23:44;;;;;;;9.07;7.05;;;14.50;99.90;;;;;;5027969;28;20690;-86
2023/08/16 05:26:10;;;;;;;8.68;6.10;;;14.50;99.90;;;;;;5024784;28;20021;-87
2023/08/16 05:28:36;;;;;;;8.38;6.20;;;14.60;99.90;;;;;;5029496;28;20021;-87
2023/08/16 05:31:11;;;;;;;9.75;7.15;;;14.60;99.90;;;;;;5040421;28;20037;-87
2023/08/16 05:33:38;;;;;;;9.65;7.20;;;14.60;99.90;;;;;;5027415;28;20022;-86
2023/08/16 05:36:04;;;;;;;8.50;6.68;;;14.60;99.90;;;;;;5036773;28;20064;-87
2023/08/16 05:38:29;;;;;;;12.57;8.05;;;14.60;99.90;;;;;;5017475;28;20102;-88
2023/08/16 05:40:55;;;;;;;9.85;7.20;;;14.70;99.90;;;;;;5020103;28;20091;-85
2023/08/16 05:43:21;;;;;;;12.25;7.68;;;14.80;99.90;;;;;;5031866;28;20048;-85
2023/08/16 05:45:46;;;;;;;10.60;7.43;;;14.80;99.90;;;;;;5024742;28;20061;-87
2023/08/16 05:48:12;;;;;;;11.65;7.50;;;14.80;99.90;;;;;;5025948;28;20464;-87
2023/08/16 05:50:38;;;;;;;14.23;8.77;;;14.90;99.90;;;;;;5021502;28;20026;-88
2023/08/16 05:53:04;;;;;;;9.43;7.32;;;14.90;99.90;;;;;;5032337;28;20029;-85
2023/08/16 05:55:29;;;;;;;9.18;7.32;;;15.00;99.90;;;;;;5019246;28;20100;-87
2023/08/16 05:57:55;;;;;;;13.73;8.32;;;15.00;99.90;;;;;;5021139;28;20026;-85
2023/08/16 06:00:21;;;;;;;9.82;7.20;;;15.10;99.90;;;;;;5026602;28;20101;-86
2023/08/16 06:02:47;;;;;;;12.50;8.40;;;15.10;99.90;;;;;;5025289;28;20436;-86
2023/08/16 06:05:13;;;;;;;13.02;8.02;;;15.20;99.90;;;;;;5030040;28;20120;-86
2023/08/16 06:07:39;;;;;;;13.35;8.25;;;15.20;99.90;;;;;;5023199;28;20042;-85
2023/08/16 06:10:06;;;;;;;10.57;7.57;;;15.30;99.90;;;;;;5024193;28;20051;-86
2023/08/16 06:12:31;;;;;;;9.52;6.80;;;15.30;99.90;;;;;;5019360;28;20022;-85
2023/08/16 06:14:57;;;;;;;14.43;6.82;;;15.40;99.90;;;;;;5021274;28;20493;-85
2023/08/16 06:17:22;;;;;;;9.18;6.25;;;15.40;99.90;;;;;;5022769;28;20052;-86
2023/08/16 06:19:48;;;;;;;6.97;5.90;;;15.50;99.90;;;;;;5043277;28;20041;-85
2023/08/16 06:22:14;;;;;;;11.40;5.55;;;15.60;99.90;;;;;;5043869;28;20033;-88
2023/08/16 06:24:39;;;;;;;8.65;4.75;;;15.60;99.90;;;;;;5028226;28;20025;-85
2023/08/16 06:27:07;;;;;;;8.05;3.97;;;15.70;99.90;;;;;;5026387;28;20021;-86
2023/08/16 06:29:32;;;;;;;5.05;3.40;;;15.80;99.90;;;;;;5024654;28;20066;-85
2023/08/16 06:31:59;;;;;;;6.38;3.53;;;15.90;99.90;;;;;;5026319;28;20049;-85
2023/08/16 06:34:24;;;;;;;8.52;3.75;;;16.10;99.90;;;;;;5027831;28;20036;-85
2023/08/16 06:36:50;;;;;;;7.85;4.25;;;16.10;99.90;;;;;;5027403;28;20096;-85
2023/08/16 06:39:17;;;;;;;7.97;3.95;;;16.20;99.90;;;;;;5026324;28;20036;-85
2023/08/16 06:41:42;;;;;;;3.15;2.80;;;16.40;99.90;;;;;;5023478;28;20461;-85
2023/08/16 06:44:08;;;;;;;5.03;2.20;;;16.50;99.90;;;;;;5023463;28;20108;-86
2023/08/16 06:46:34;;;;;;;6.40;2.78;;;16.60;99.90;;;;;;5024118;28;20627;-85
2023/08/16 06:49:00;;;;;;;7.47;2.75;;;16.70;99.90;;;;;;5026757;28;20036;-85
2023/08/16 06:51:26;;;;;;;8.70;2.67;;;16.80;99.90;;;;;;5016992;28;20267;-85
2023/08/16 06:53:52;;;;;;;8.93;2.53;;;17.00;99.90;;;;;;5025376;28;20530;-85
2023/08/16 06:56:17;;;;;;;4.65;2.13;;;17.10;99.90;;;;;;5028880;28;20085;-87
2023/08/16 06:58:43;;;;;;;8.80;2.60;;;17.20;99.90;;;;;;5021758;28;20045;-84
2023/08/16 07:01:09;;;;;;;7.25;2.22;;;17.40;99.90;;;;;;5025322;28;20049;-84
2023/08/16 07:03:35;;;;;;;3.00;2.00;;;17.50;99.90;;;;;;5021722;28;20022;-85
2023/08/16 07:06:01;;;;;;;5.03;1.80;;;17.70;99.90;;;;;;5026063;28;20017;-84
2023/08/16 07:08:27;;;;;;;4.15;1.70;;;17.80;99.90;;;;;;5025744;28;20040;-85
2023/08/16 07:10:54;;;;;;;4.63;1.80;;;17.90;99.90;;;;;;5027165;28;20018;-83
2023/08/16 07:13:20;;;;;;;3.17;1.90;;;18.00;99.90;;;;;;5019400;28;20073;-84
2023/08/16 07:15:46;;;;;;;9.20;2.60;;;18.20;99.90;;;;;;5015559;28;20025;-85
2023/08/16 07:18:11;;;;;;;9.48;2.80;;;18.30;99.90;;;;;;5026887;28;20044;-84
2023/08/16 07:20:37;;;;;;;2.83;1.50;;;18.50;99.90;;;;;;5021372;28;20041;-84
2023/08/16 07:23:02;;;;;;;4.68;2.05;;;18.60;99.90;;;;;;5019756;28;20033;-84
2023/08/16 07:25:28;;;;;;;1.77;1.40;;;18.70;99.90;;;;;;5018306;28;20025;-84
2023/08/16 07:27:54;;;;;;;5.93;2.05;;;18.80;99.90;;;;;;5018547;28;20065;-84
2023/08/16 07:30:19;;;;;;;2.80;1.45;;;19.00;99.90;;;;;;5025906;28;20029;-83
2023/08/16 07:32:45;;;;;;;5.47;2.28;;;19.10;99.90;;;;;;5018333;28;20121;-85
2023/08/16 07:35:11;;;;;;;2.92;1.70;;;19.30;99.90;;;;;;5024463;28;20113;-84
2023/08/16 07:37:37;;;;;;;4.18;1.50;;;19.40;99.90;;;;;;5020459;28;20608;-84
2023/08/16 07:40:04;;;;;;;4.72;1.88;;;19.50;99.90;;;;;;5012677;28;20129;-85
2023/08/16 07:42:30;;;;;;;4.38;1.52;;;19.60;99.90;;;;;;5027108;28;20021;-85
2023/08/16 07:44:58;;;;;;;5.43;1.42;;;19.70;99.90;;;;;;5019755;28;20054;-84
2023/08/16 07:47:24;;;;;;;6.15;1.65;;;19.90;99.90;;;;;;5025493;28;20028;-85
2023/08/16 07:49:50;;;;;;;4.47;1.20;;;19.90;99.90;;;;;;5018496;28;20017;-82
2023/08/16 07:52:15;;;;;;;3.75;1.45;;;20.00;99.90;;;;;;5025085;28;20401;-82
2023/08/16 07:54:41;;;;;;;3.83;1.33;;;20.00;99.90;;;;;;5015134;28;20465;-83
2023/08/16 07:57:06;;;;;;;5.50;1.40;;;20.10;99.90;;;;;;5018581;28;20169;-83
2023/08/16 07:59:33;;;;;;;3.63;1.25;;;20.20;99.90;;;;;;5026701;28;20037;-84
2023/08/16 08:01:58;;;;;;;4.90;1.23;;;20.20;99.90;;;;;;5018821;28;20173;-83
2023/08/16 08:04:24;;;;;;;1.80;1.27;;;20.30;99.90;;;;;;5021534;28;20486;-85
2023/08/16 08:06:49;;;;;;;5.47;1.85;;;20.20;99.90;;;;;;5018564;28;20079;-85
2023/08/16 08:09:15;;;;;;;2.85;1.13;;;20.40;99.90;;;;;;5019021;28;20108;-82
2023/08/16 08:11:40;;;;;;;4.03;1.05;;;20.30;99.90;;;;;;5019308;28;20062;-85
2023/08/16 08:14:06;;;;;;;1.98;0.95;;;20.10;99.90;;;;;;5020996;28;20061;-84
2023/08/16 08:16:32;;;;;;;5.88;1.83;;;20.10;99.90;;;;;;5017914;28;20037;-84
2023/08/16 08:18:57;;;;;;;2.13;1.33;;;20.10;99.90;;;;;;5018010;28;20456;-84
2023/08/16 08:21:23;;;;;;;3.67;1.50;;;20.20;99.90;;;;;;5018248;28;20084;-83
2023/08/16 08:23:48;;;;;;;2.33;1.00;;;20.40;99.90;;;;;;5021972;28;20048;-83
2023/08/16 08:26:15;;;;;;;3.13;1.50;;;20.60;99.90;;;;;;5015735;28;20018;-85
2023/08/16 08:28:41;;;;;;;4.70;1.48;;;20.70;99.90;;;;;;5019616;28;20025;-83
2023/08/16 08:31:07;;;;;;;3.97;0.95;;;20.90;99.90;;;;;;5021045;28;20428;-84
2023/08/16 08:33:32;;;;;;;2.20;1.17;;;21.00;99.90;;;;;;5020282;28;20112;-84
2023/08/16 08:35:58;;;;;;;4.43;1.88;;;21.10;99.90;;;;;;5024848;28;20320;-83
2023/08/16 08:38:24;;;;;;;7.45;2.03;;;21.20;99.90;;;;;;5018452;28;20022;-84
2023/08/16 08:40:59;;;;;;;4.65;1.23;;;21.30;99.90;;;;;;5018743;28;20116;-84
2023/08/16 08:43:32;;;;;;;;;;;21.40;99.90;;;;;;5019714;28;20037;-84
2023/08/16 08:45:59;;;;;;;7.53;1.15;;;21.50;99.90;;;;;;5025743;28;19927;-83
2023/08/16 08:48:26;;;;;;;3.13;1.30;;;21.40;99.90;;;;;;5031321;28;20122;-84
2023/08/16 08:50:53;;;;;;;6.45;1.25;;;21.40;99.90;;;;;;5027929;28;20052;-83
2023/08/16 08:53:20;;;;;;;2.65;1.10;;;21.30;99.90;;;;;;5025910;28;20129;-84
2023/08/16 08:55:48;;;;;;;2.80;1.17;;;21.40;99.90;;;;;;5014813;28;20037;-83
2023/08/16 08:58:17;;;;;;;2.28;1.45;;;21.40;99.90;;;;;;5024230;28;20029;-85
2023/08/16 09:00:43;;;;;;;3.20;1.58;;;21.50;99.90;;;;;;5014693;28;20033;-84
2023/08/16 09:03:10;;;;;;;3.28;1.50;;;21.50;99.90;;;;;;5032115;28;20032;-84
2023/08/16 09:05:38;;;;;;;3.58;1.17;;;21.50;99.90;;;;;;5027614;28;20109;-84
2023/08/16 09:08:05;;;;;;;5.40;1.30;;;21.50;99.90;;;;;;5024358;28;20022;-81
2023/08/16 09:10:37;;;;;;;3.28;1.23;;;21.60;99.90;;;;;;5020590;28;20041;-84
2023/08/16 09:13:04;;;;;;;3.05;1.15;;;21.60;99.90;;;;;;5018208;28;20026;-84
2023/08/16 09:15:30;;;;;;;1.60;0.90;;;21.50;99.90;;;;;;5021585;28;20018;-82
2023/08/16 09:18:07;;;;;;;5.43;1.17;;;21.50;99.90;;;;;;5027430;28;20029;-83
2023/08/16 09:20:32;;;;;;;2.50;1.45;;;21.50;99.90;;;;;;5024076;28;20032;-84
2023/08/16 09:22:58;;;;;;;3.95;1.00;;;21.50;99.90;;;;;;5020461;28;20493;-84
2023/08/16 09:25:24;;;;;;;3.55;1.20;;;21.50;99.90;;;;;;5026459;28;20506;-83
2023/08/16 09:27:52;;;;;;;3.55;0.85;;;21.60;99.90;;;;;;5021454;28;20113;-84
2023/08/16 09:30:18;;;;;;;3.05;1.05;;;21.50;99.90;;;;;;5025904;28;20026;-82
2023/08/16 09:32:45;;;;;;;3.25;0.90;;;21.40;99.90;;;;;;5021448;28;20489;-85
2023/08/16 09:35:12;;;;;;;5.18;1.52;;;21.30;99.90;;;;;;5027421;28;20505;-84
2023/08/16 09:37:39;;;;;;;2.08;1.33;;;21.40;99.90;;;;;;5021923;28;20030;-84
2023/08/16 09:40:06;;;;;;;3.00;1.58;;;21.40;99.90;;;;;;5020623;28;20026;-83
2023/08/16 09:42:32;;;;;;;3.53;1.30;;;21.40;99.90;;;;;;5022051;28;20079;-82
2023/08/16 09:44:58;;;;;;;3.33;1.13;;;21.40;99.90;;;;;;5021192;28;20048;-84
2023/08/16 09:47:25;;;;;;;3.40;1.30;;;21.20;99.90;;;;;;5029647;28;20017;-82
2023/08/16 09:49:51;;;;;;;4.45;1.50;;;21.20;99.90;;;;;;5016564;28;20604;-84
2023/08/16 09:52:17;;;;;;;4.72;1.40;;;21.20;99.90;;;;;;5028551;28;20064;-83
2023/08/16 09:54:46;;;;;;;3.80;0.95;;;21.20;99.90;;;;;;5021448;28;20095;-85
2023/08/16 09:57:12;;;;;;;4.18;1.20;;;21.20;99.90;;;;;;5016466;28;20026;-84
2023/08/16 09:59:38;;;;;;;2.80;1.30;;;21.30;99.90;;;;;;5028164;28;20515;-83
2023/08/16 10:02:06;;;;;;;3.08;1.23;;;21.30;99.90;;;;;;5021241;28;20030;-84
2023/08/16 10:04:32;;;;;;;3.45;1.42;;;21.30;99.90;;;;;;5025940;28;20045;-84
2023/08/16 10:06:58;;;;;;;3.00;1.67;;;21.40;99.90;;;;;;5023901;28;20040;-84
2023/08/16 10:09:24;;;;;;;5.00;1.15;;;21.40;99.90;;;;;;5021720;28;20022;-83
2023/08/16 10:11:51;;;;;;;3.70;1.15;;;21.40;99.90;;;;;;5016662;28;20112;-84
2023/08/16 10:14:17;;;;;;;3.65;1.77;;;21.40;99.90;;;;;;5023522;28;20448;-84
2023/08/16 10:16:48;;;;;;;1.70;1.00;;;21.30;99.90;;;;;;5017309;28;20034;-82
2023/08/16 10:19:16;;;;;;;2.55;1.20;;;21.30;99.90;;;;;;5033592;28;20045;-82
2023/08/16 10:21:45;;;;;;;1.85;1.00;;;21.30;99.90;;;;;;5027546;28;20018;-82
2023/08/16 10:24:15;;;;;;;2.40;1.02;;;21.30;99.90;;;;;;5024319;28;20048;-82
2023/08/16 10:26:44;;;;;;;3.28;1.42;;;21.30;99.90;;;;;;5019395;28;20113;-83
2023/08/16 10:29:13;;;;;;;4.00;1.50;;;21.30;99.90;;;;;;5019415;28;20018;-83
2023/08/16 10:31:43;;;;;;;3.15;1.08;;;21.30;99.90;;;;;;5021597;28;20049;-83
2023/08/16 10:34:11;;;;;;;5.10;1.38;;;21.30;99.90;;;;;;5025020;28;20029;-83
2023/08/16 10:36:37;;;;;;;2.58;1.20;;;21.30;99.90;;;;;;5037670;28;20026;-85
2023/08/16 10:39:03;;;;;;;4.97;1.35;;;21.30;99.90;;;;;;5045317;28;20033;-83
2023/08/16 10:41:40;;;;;;;4.95;1.80;;;21.30;99.90;;;;;;5031107;28;20033;-81
2023/08/16 10:44:07;;;;;;;1.75;0.93;;;21.30;99.90;;;;;;5028660;28;20396;-84
2023/08/16 10:46:37;;;;;;;2.65;1.08;;;21.30;99.90;;;;;;5028661;28;20033;-85
2023/08/16 10:49:07;;;;;;;4.63;1.40;;;21.30;99.90;;;;;;5009816;28;20121;-84
2023/08/16 10:51:44;;;;;;;4.05;1.20;;;21.30;99.90;;;;;;5027225;28;20041;-84
2023/08/16 10:54:11;;;;;;;1.83;1.00;;;21.40;99.90;;;;;;5024254;28;20026;-84
2023/08/16 10:56:48;;;;;;;2.65;1.00;;;21.40;99.90;;;;;;5024153;28;20059;-84
2023/08/16 10:59:14;;;;;;;2.85;1.63;;;21.50;99.90;;;;;;5028098;28;20123;-82
2023/08/16 11:01:48;;;;;;;5.43;1.30;;;21.50;99.90;;;;;;5026466;28;20069;-84
2023/08/16 11:04:14;;;;;;;3.40;1.42;;;21.50;99.90;;;;;;5027489;28;20022;-84
2023/08/16 11:06:40;;;;;;;3.72;1.35;;;21.60;99.90;;;;;;5027395;28;20037;-82
2023/08/16 11:09:07;;;;;;;3.42;1.15;;;21.50;99.90;;;;;;5019753;28;20028;-82
2023/08/16 11:11:33;;;;;;;3.55;1.38;;;21.60;99.90;;;;;;5020909;28;20088;-84
2023/08/16 11:14:00;;;;;;;3.45;1.52;;;21.50;99.90;;;;;;5024683;28;20029;-83
2023/08/16 11:16:26;;;;;;;1.40;1.20;;;21.60;99.90;;;;;;5021021;28;20022;-84
2023/08/16 11:18:52;;;;;;;3.90;1.25;;;21.60;99.90;;;;;;5028793;28;20480;-84
2023/08/16 11:21:19;;;;;;;6.22;1.65;;;21.80;99.90;;;;;;5022345;28;20026;-84
2023/08/16 11:23:44;;;;;;;2.50;0.90;;;21.80;99.90;;;;;;5023282;28;20029;-84
2023/08/16 11:26:10;;;;;;;1.33;1.02;;;21.90;99.90;;;;;;5023355;28;20026;-83
2023/08/16 11:28:38;;;;;;;2.85;1.48;;;22.00;99.90;;;;;;5023750;28;20108;-84
2023/08/16 11:31:06;;;;;;;1.70;1.10;;;22.00;99.90;;;;;;5021550;28;20107;-84
2023/08/16 11:33:36;;;;;;;5.63;1.10;;;22.10;99.90;;;;;;5021630;28;20080;-84
2023/08/16 11:36:04;;;;;;;3.30;0.93;;;22.20;99.90;;;;;;5025752;28;20026;-83
2023/08/16 11:38:30;;;;;;;1.88;1.08;;;22.30;99.90;;;;;;5018846;28;20014;-83
2023/08/16 11:40:56;;;;;;;2.53;1.08;;;22.40;99.90;;;;;;5020777;28;20033;-84
2023/08/16 11:43:30;;;;;;;1.77;1.15;;;22.30;99.90;;;;;;5020283;28;20091;-83
2023/08/16 11:45:57;;;;;;;1.42;0.90;;;22.30;99.90;;;;;;5010754;28;20125;-84
2023/08/16 11:48:28;;;;;;;3.35;1.25;;;22.30;99.90;;;;;;5022533;28;20076;-84
2023/08/16 11:50:54;;;;;;;2.45;1.10;;;22.40;99.90;;;;;;5010589;28;20024;-83
2023/08/16 11:53:21;;;;;;;2.38;1.50;;;22.30;99.90;;;;;;5023584;28;20022;-84
2023/08/16 11:56:00;;;;;;;3.28;1.20;;;22.40;99.90;;;;;;5023080;28;20024;-83
2023/08/16 11:58:26;;;;;;;4.28;1.50;;;22.20;99.90;;;;;;5021603;28;20072;-83
2023/08/16 12:00:51;;;;;;;2.88;1.40;;;22.20;99.90;;;;;;5023724;28;20075;-84
2023/08/16 12:03:17;;;;;;;3.35;1.20;;;22.20;99.90;;;;;;5022654;28;20626;-84
2023/08/16 12:05:49;;;;;;;3.13;1.35;;;22.10;99.90;;;;;;5025001;28;20088;-82
2023/08/16 12:08:22;;;;;;;1.30;1.20;;;22.10;99.90;;;;;;5019245;28;20501;-81
2023/08/16 12:10:53;;;;;;;3.42;1.50;;;22.10;99.90;;;;;;5021870;28;20026;-83
2023/08/16 12:13:20;;;;;;;3.03;1.55;;;22.20;99.90;;;;;;5024412;28;20026;-83
2023/08/16 12:15:46;;;;;;;6.32;1.85;;;22.30;99.90;;;;;;5018364;28;20029;-82
2023/08/16 12:18:14;;;;;;;2.10;1.52;;;22.40;99.90;;;;;;5025919;28;20022;-83
2023/08/16 12:20:40;;;;;;;3.33;1.52;;;22.50;99.90;;;;;;5023783;28;20032;-83
2023/08/16 12:23:07;;;;;;;3.85;1.48;;;22.60;99.90;;;;;;5022468;28;20500;-83
2023/08/16 12:25:34;;;;;;;5.20;1.83;;;22.60;99.90;;;;;;5028487;28;20060;-83
2023/08/16 12:28:00;;;;;;;1.23;1.13;;;22.60;99.90;;;;;;5015773;28;20083;-84
2023/08/16 12:30:28;;;;;;;4.18;1.60;;;22.70;99.90;;;;;;5030262;28;20025;-82
2023/08/16 12:32:54;;;;;;;5.00;1.75;;;22.60;99.90;;;;;;5026021;28;20690;-84
2023/08/16 12:35:19;;;;;;;4.13;1.55;;;22.70;99.90;;;;;;5024418;28;20026;-83
2023/08/16 12:37:45;;;;;;;3.45;1.63;;;22.80;99.90;;;;;;5029146;28;20660;-83
2023/08/16 12:40:11;;;;;;;5.03;1.75;;;22.80;99.90;;;;;;5021930;28;20029;-83
2023/08/16 12:42:37;;;;;;;2.58;1.40;;;22.80;99.90;;;;;;5030016;28;20106;-82